sensor_id;sensor_type;location;lat;lon;timestamp;pressure;altitude;pressure_sealevel;temperature;humidity
7614;BME280;3848;42.016;23.098;2024-01-30T00:00:54;99018.94;;;0.50;100.00
7614;BME280;3848;42.016;23.098;2024-01-30T00:03:27;99006.72;;;0.41;100.00
7614;BME280;3848;42.016;23.098;2024-01-30T00:05:55;99024.63;;;0.47;100.00
7614;BME280;3848;42.016;23.098;2024-01-30T00:08:22;99032.13;;;0.34;100.00
7614;BME280;3848;42.016;23.098;2024-01-30T00:10:49;99034.53;;;0.33;100.00
7614;BME280;3848;42.016;23.098;2024-01-30T00:13:16;99036.94;;;0.31;100.00
7614;BME280;3848;42.016;23.098;2024-01-30T00:15:45;99033.47;;;0.29;100.00
7614;BME280;3848;42.016;23.098;2024-01-30T00:18:12;99035.19;;;0.30;100.00
7614;BME280;3848;42.016;23.098;2024-01-30T00:20:41;99037.13;;;0.21;100.00
7614;BME280;3848;42.016;23.098;2024-01-30T00:23:08;99039.16;;;0.26;100.00
7614;BME280;3848;42.016;23.098;2024-01-30T00:25:35;99039.63;;;0.21;100.00
7614;BME280;3848;42.016;23.098;2024-01-30T00:28:02;99044.25;;;0.28;100.00
7614;BME280;3848;42.016;23.098;2024-01-30T00:30:29;99045.00;;;0.27;100.00
7614;BME280;3848;42.016;23.098;2024-01-30T00:32:56;99032.22;;;0.22;100.00
7614;BME280;3848;42.016;23.098;2024-01-30T00:35:23;99047.31;;;0.24;100.00
7614;BME280;3848;42.016;23.098;2024-01-30T00:38:01;99042.50;;;0.27;100.00
7614;BME280;3848;42.016;23.098;2024-01-30T00:40:28;99041.66;;;0.26;100.00
7614;BME280;3848;42.016;23.098;2024-01-30T00:42:55;99029.41;;;0.18;100.00
7614;BME280;3848;42.016;23.098;2024-01-30T00:45:22;99037.13;;;0.21;100.00
7614;BME280;3848;42.016;23.098;2024-01-30T00:47:49;99043.75;;;0.20;100.00
7614;BME280;3848;42.016;23.098;2024-01-30T00:50:16;99040.50;;;0.21;100.00
7614;BME280;3848;42.016;23.098;2024-01-30T00:52:43;99027.00;;;0.19;100.00
7614;BME280;3848;42.016;23.098;2024-01-30T00:55:14;99030.78;;;0.13;100.00
7614;BME280;3848;42.016;23.098;2024-01-30T00:57:41;99029.81;;;0.11;100.00
7614;BME280;3848;42.016;23.098;2024-01-30T01:00:09;99041.50;;;-0.02;100.00
7614;BME280;3848;42.016;23.098;2024-01-30T01:02:36;99048.53;;;-0.09;100.00
7614;BME280;3848;42.016;23.098;2024-01-30T01:05:05;99048.34;;;-0.12;100.00
7614;BME280;3848;42.016;23.098;2024-01-30T01:07:32;99044.88;;;-0.14;100.00
7614;BME280;3848;42.016;23.098;2024-01-30T01:09:59;99053.34;;;-0.12;100.00
7614;BME280;3848;42.016;23.098;2024-01-30T01:12:28;99050.06;;;-0.11;100.00
7614;BME280;3848;42.016;23.098;2024-01-30T01:14:54;99045.84;;;-0.12;100.00
7614;BME280;3848;42.016;23.098;2024-01-30T01:17:21;99047.84;;;-0.07;100.00
7614;BME280;3848;42.016;23.098;2024-01-30T01:19:48;99038.53;;;-0.09;100.00
7614;BME280;3848;42.016;23.098;2024-01-30T01:22:16;99042.47;;;-0.13;100.00
7614;BME280;3848;42.016;23.098;2024-01-30T01:24:43;99042.47;;;-0.13;100.00
7614;BME280;3848;42.016;23.098;2024-01-30T01:27:10;99030.38;;;-0.20;100.00
7614;BME280;3848;42.016;23.098;2024-01-30T01:29:39;99038.16;;;-0.15;100.00
7614;BME280;3848;42.016;23.098;2024-01-30T01:32:06;99038.72;;;-0.19;100.00
7614;BME280;3848;42.016;23.098;2024-01-30T01:34:33;99026.88;;;-0.22;100.00
7614;BME280;3848;42.016;23.098;2024-01-30T01:37:00;99027.44;;;-0.26;100.00
7614;BME280;3848;42.016;23.098;2024-01-30T01:39:27;99033.03;;;-0.30;100.00
7614;BME280;3848;42.016;23.098;2024-01-30T01:41:53;99018.00;;;-0.43;100.00
7614;BME280;3848;42.016;23.098;2024-01-30T01:44:20;99031.88;;;-0.35;100.00
7614;BME280;3848;42.016;23.098;2024-01-30T01:46:49;99019.53;;;-0.45;100.00
7614;BME280;3848;42.016;23.098;2024-01-30T01:49:17;99030.47;;;-0.43;100.00
7614;BME280;3848;42.016;23.098;2024-01-30T01:51:46;99016.59;;;-0.65;100.00
7614;BME280;3848;42.016;23.098;2024-01-30T01:54:14;99032.38;;;-0.52;100.00
7614;BME280;3848;42.016;23.098;2024-01-30T01:56:42;99032.28;;;-0.54;100.00
7614;BME280;3848;42.016;23.098;2024-01-30T01:59:10;99029.59;;;-0.57;100.00
7614;BME280;3848;42.016;23.098;2024-01-30T02:01:37;99037.09;;;-0.57;100.00
7614;BME280;3848;42.016;23.098;2024-01-30T02:04:07;99009.66;;;-0.69;100.00
7614;BME280;3848;42.016;23.098;2024-01-30T02:06:35;99011.50;;;-0.66;100.00
7614;BME280;3848;42.016;23.098;2024-01-30T02:09:02;99036.41;;;-0.54;100.00
7614;BME280;3848;42.016;23.098;2024-01-30T02:11:30;99033.63;;;-0.59;100.00
7614;BME280;3848;42.016;23.098;2024-01-30T02:14:02;99040.91;;;-0.62;100.00
7614;BME280;3848;42.016;23.098;2024-01-30T02:16:29;99036.56;;;-0.65;100.00
7614;BME280;3848;42.016;23.098;2024-01-30T02:18:56;99037.31;;;-0.66;100.00
7614;BME280;3848;42.016;23.098;2024-01-30T02:21:25;99038.41;;;-0.62;100.00
7614;BME280;3848;42.016;23.098;2024-01-30T02:23:52;99029.06;;;-0.65;100.00
7614;BME280;3848;42.016;23.098;2024-01-30T02:26:21;99038.63;;;-0.59;100.00
7614;BME280;3848;42.016;23.098;2024-01-30T02:28:48;99038.63;;;-0.59;100.00
7614;BME280;3848;42.016;23.098;2024-01-30T02:31:15;99036.88;;;-0.60;100.00
7614;BME280;3848;42.016;23.098;2024-01-30T02:33:42;99033.09;;;-0.67;100.00
7614;BME280;3848;42.016;23.098;2024-01-30T02:36:09;99041.66;;;-0.63;100.00
7614;BME280;3848;42.016;23.098;2024-01-30T02:38:37;99035.78;;;-0.64;100.00
7614;BME280;3848;42.016;23.098;2024-01-30T02:41:05;99041.91;;;-0.72;100.00
7614;BME280;3848;42.016;23.098;2024-01-30T02:43:32;99037.28;;;-0.79;100.00
7614;BME280;3848;42.016;23.098;2024-01-30T02:45:58;99038.81;;;-0.81;100.00
7614;BME280;3848;42.016;23.098;2024-01-30T02:48:26;99049.09;;;-0.76;100.00
7614;BME280;3848;42.016;23.098;2024-01-30T02:50:53;99033.09;;;-0.92;100.00
7614;BME280;3848;42.016;23.098;2024-01-30T02:53:20;99056.19;;;-0.82;100.00
7614;BME280;3848;42.016;23.098;2024-01-30T02:55:48;99032.69;;;-0.98;100.00
7614;BME280;3848;42.016;23.098;2024-01-30T02:58:15;99058.25;;;-0.88;100.00
7614;BME280;3848;42.016;23.098;2024-01-30T03:00:42;99030.88;;;-1.00;100.00
7614;BME280;3848;42.016;23.098;2024-01-30T03:03:09;99056.41;;;-0.91;100.00
7614;BME280;3848;42.016;23.098;2024-01-30T03:05:36;99050.34;;;-0.95;100.00
7614;BME280;3848;42.016;23.098;2024-01-30T03:08:04;99047.66;;;-0.98;100.00
7614;BME280;3848;42.016;23.098;2024-01-30T03:10:31;99050.91;;;-0.99;100.00
7614;BME280;3848;42.016;23.098;2024-01-30T03:13:00;99022.03;;;-1.20;100.00
7614;BME280;3848;42.016;23.098;2024-01-30T03:15:27;99043.22;;;-1.02;100.00
7614;BME280;3848;42.016;23.098;2024-01-30T03:17:54;99029.16;;;-1.13;100.00
7614;BME280;3848;42.016;23.098;2024-01-30T03:20:21;99043.13;;;-1.03;100.00
7614;BME280;3848;42.016;23.098;2024-01-30T03:22:48;99038.78;;;-1.06;100.00
7614;BME280;3848;42.016;23.098;2024-01-30T03:25:15;99026.44;;;-1.16;100.00
7614;BME280;3848;42.016;23.098;2024-01-30T03:27:42;99035.97;;;-1.10;100.00
7614;BME280;3848;42.016;23.098;2024-01-30T03:30:10;99037.03;;;-1.07;100.00
7614;BME280;3848;42.016;23.098;2024-01-30T03:32:37;98992.28;;;-1.42;100.00
7614;BME280;3848;42.016;23.098;2024-01-30T03:35:05;99030.47;;;-1.18;100.00
7614;BME280;3848;42.016;23.098;2024-01-30T03:37:32;99041.22;;;-1.19;100.00
7614;BME280;3848;42.016;23.098;2024-01-30T03:39:59;99046.19;;;-1.19;100.00
7614;BME280;3848;42.016;23.098;2024-01-30T03:42:26;99037.75;;;-1.21;100.00
7614;BME280;3848;42.016;23.098;2024-01-30T03:44:53;99039.28;;;-1.23;100.00
7614;BME280;3848;42.016;23.098;2024-01-30T03:47:22;99039.81;;;-1.27;100.00
7614;BME280;3848;42.016;23.098;2024-01-30T03:49:49;99037.09;;;-1.30;100.00
7614;BME280;3848;42.016;23.098;2024-01-30T03:52:16;99031.69;;;-1.36;100.00
7614;BME280;3848;42.016;23.098;2024-01-30T03:54:43;99061.38;;;-1.28;100.00
7614;BME280;3848;42.016;23.098;2024-01-30T03:57:09;99056.19;;;-1.19;100.00
7614;BME280;3848;42.016;23.098;2024-01-30T03:59:36;99048.81;;;-1.17;100.00
7614;BME280;3848;42.016;23.098;2024-01-30T04:02:03;99051.94;;;-1.20;100.00
7614;BME280;3848;42.016;23.098;2024-01-30T04:04:32;99050.31;;;-1.19;100.00
7614;BME280;3848;42.016;23.098;2024-01-30T04:06:59;99047.16;;;-1.17;100.00
7614;BME280;3848;42.016;23.098;2024-01-30T04:09:26;99056.78;;;-1.10;100.00
7614;BME280;3848;42.016;23.098;2024-01-30T04:11:54;99051.81;;;-1.10;100.00
7614;BME280;3848;42.016;23.098;2024-01-30T04:14:21;99049.88;;;-1.14;100.00
7614;BME280;3848;42.016;23.098;2024-01-30T04:16:48;99056.06;;;-1.20;100.00
7614;BME280;3848;42.016;23.098;2024-01-30T04:19:15;99057.25;;;-1.27;100.00
7614;BME280;3848;42.016;23.098;2024-01-30T04:21:43;99051.75;;;-1.23;100.00
7614;BME280;3848;42.016;23.098;2024-01-30T04:24:10;99055.44;;;-1.30;100.00
7614;BME280;3848;42.016;23.098;2024-01-30T04:26:37;99055.72;;;-1.25;100.00
7614;BME280;3848;42.016;23.098;2024-01-30T04:29:04;99058.13;;;-1.27;100.00
7614;BME280;3848;42.016;23.098;2024-01-30T04:31:33;99053.13;;;-1.27;100.00
7614;BME280;3848;42.016;23.098;2024-01-30T04:34:00;99060.63;;;-1.27;100.00
7614;BME280;3848;42.016;23.098;2024-01-30T04:36:27;99053.13;;;-1.27;100.00
7614;BME280;3848;42.016;23.098;2024-01-30T04:38:55;99054.50;;;-1.43;100.00
7614;BME280;3848;42.016;23.098;2024-01-30T04:41:22;99059.69;;;-1.40;100.00
7614;BME280;3848;42.016;23.098;2024-01-30T04:43:49;99063.81;;;-1.41;100.00
7614;BME280;3848;42.016;23.098;2024-01-30T04:46:16;99073.78;;;-1.41;100.00
7614;BME280;3848;42.016;23.098;2024-01-30T04:48:43;99079.53;;;-1.42;100.00
7614;BME280;3848;42.016;23.098;2024-01-30T04:51:10;99074.19;;;-1.46;100.00
7614;BME280;3848;42.016;23.098;2024-01-30T04:53:37;99076.38;;;-1.51;100.00
7614;BME280;3848;42.016;23.098;2024-01-30T04:56:06;99086.34;;;-1.51;100.00
7614;BME280;3848;42.016;23.098;2024-01-30T04:58:33;99089.59;;;-1.52;100.00
7614;BME280;3848;42.016;23.098;2024-01-30T05:01:01;99091.09;;;-1.54;100.00
7614;BME280;3848;42.016;23.098;2024-01-30T05:03:28;99095.00;;;-1.58;100.00
7614;BME280;3848;42.016;23.098;2024-01-30T05:05:55;99095.66;;;-1.60;100.00
7614;BME280;3848;42.016;23.098;2024-01-30T05:08:22;99087.22;;;-1.62;100.00
7614;BME280;3848;42.016;23.098;2024-01-30T05:10:49;99093.19;;;-1.60;100.00
7614;BME280;3848;42.016;23.098;2024-01-30T05:13:17;99094.16;;;-1.58;100.00
7614;BME280;3848;42.016;23.098;2024-01-30T05:15:44;99101.63;;;-1.58;100.00
7614;BME280;3848;42.016;23.098;2024-01-30T05:18:11;99095.00;;;-1.58;100.00
7614;BME280;3848;42.016;23.098;2024-01-30T05:20:38;99100.63;;;-1.72;100.00
7614;BME280;3848;42.016;23.098;2024-01-30T05:23:06;99103.53;;;-1.89;100.00
7614;BME280;3848;42.016;23.098;2024-01-30T05:25:33;99096.38;;;-2.08;100.00
7614;BME280;3848;42.016;23.098;2024-01-30T05:28:01;99094.72;;;-2.19;100.00
7614;BME280;3848;42.016;23.098;2024-01-30T05:30:29;99094.28;;;-2.25;100.00
7614;BME280;3848;42.016;23.098;2024-01-30T05:32:56;99094.88;;;-2.39;100.00
7614;BME280;3848;42.016;23.098;2024-01-30T05:35:23;99104.16;;;-2.49;100.00
7614;BME280;3848;42.016;23.098;2024-01-30T05:37:51;99104.91;;;-2.50;100.00
7614;BME280;3848;42.016;23.098;2024-01-30T05:40:18;99098.94;;;-2.52;100.00
7614;BME280;3848;42.016;23.098;2024-01-30T05:42:45;99103.25;;;-2.61;100.00
7614;BME280;3848;42.016;23.098;2024-01-30T05:45:12;99115.69;;;-2.61;100.00
7614;BME280;3848;42.016;23.098;2024-01-30T05:47:40;99117.06;;;-2.64;100.00
7614;BME280;3848;42.016;23.098;2024-01-30T05:50:07;99080.97;;;-2.81;100.00
7614;BME280;3848;42.016;23.098;2024-01-30T05:52:34;99115.16;;;-2.57;100.00
7614;BME280;3848;42.016;23.098;2024-01-30T05:55:01;99108.66;;;-2.55;100.00
7614;BME280;3848;42.016;23.098;2024-01-30T05:57:29;99113.25;;;-2.49;100.00
7614;BME280;3848;42.016;23.098;2024-01-30T05:59:56;99112.13;;;-2.53;100.00
7614;BME280;3848;42.016;23.098;2024-01-30T06:02:23;99101.09;;;-2.56;100.00
7614;BME280;3848;42.016;23.098;2024-01-30T06:04:51;99120.84;;;-2.48;100.00
7614;BME280;3848;42.016;23.098;2024-01-30T06:07:19;99113.88;;;-2.52;100.00
7614;BME280;3848;42.016;23.098;2024-01-30T06:09:47;99117.38;;;-2.50;100.00
7614;BME280;3848;42.016;23.098;2024-01-30T06:12:14;99104.97;;;-2.60;100.00
7614;BME280;3848;42.016;23.098;2024-01-30T06:14:41;99090.25;;;-2.68;100.00
7614;BME280;3848;42.016;23.098;2024-01-30T06:17:08;99115.59;;;-2.51;100.00
7614;BME280;3848;42.016;23.098;2024-01-30T06:19:37;99119.59;;;-2.53;100.00
7614;BME280;3848;42.016;23.098;2024-01-30T06:22:05;99113.19;;;-2.61;100.00
7614;BME280;3848;42.016;23.098;2024-01-30T06:24:32;99106.47;;;-2.62;100.00
7614;BME280;3848;42.016;23.098;2024-01-30T06:27:00;99134.03;;;-2.49;100.00
7614;BME280;3848;42.016;23.098;2024-01-30T06:29:27;99098.56;;;-2.68;100.00
7614;BME280;3848;42.016;23.098;2024-01-30T06:31:54;99136.00;;;-2.44;100.00
7614;BME280;3848;42.016;23.098;2024-01-30T06:34:22;99117.22;;;-2.51;100.00
7614;BME280;3848;42.016;23.098;2024-01-30T06:36:49;99052.69;;;-2.93;100.00
7614;BME280;3848;42.016;23.098;2024-01-30T06:39:18;99129.09;;;-2.59;100.00
7614;BME280;3848;42.016;23.098;2024-01-30T06:41:44;99078.19;;;-2.74;100.00
7614;BME280;3848;42.016;23.098;2024-01-30T06:44:12;99139.00;;;-2.49;100.00
7614;BME280;3848;42.016;23.098;2024-01-30T06:46:39;99135.22;;;-2.43;100.00
7614;BME280;3848;42.016;23.098;2024-01-30T06:49:06;99133.22;;;-2.59;100.00
7614;BME280;3848;42.016;23.098;2024-01-30T06:51:33;99144.66;;;-2.39;100.00
7614;BME280;3848;42.016;23.098;2024-01-30T06:54:00;99135.69;;;-2.37;100.00
7614;BME280;3848;42.016;23.098;2024-01-30T06:56:29;99138.00;;;-2.29;100.00
7614;BME280;3848;42.016;23.098;2024-01-30T06:58:56;99141.06;;;-2.21;100.00
7614;BME280;3848;42.016;23.098;2024-01-30T07:01:28;99139.75;;;-2.16;100.00
7614;BME280;3848;42.016;23.098;2024-01-30T07:03:55;99110.72;;;-2.27;100.00
7614;BME280;3848;42.016;23.098;2024-01-30T07:06:28;99139.06;;;-2.03;100.00
7614;BME280;3848;42.016;23.098;2024-01-30T07:08:55;99144.59;;;-1.96;100.00
7614;BME280;3848;42.016;23.098;2024-01-30T07:11:22;99140.56;;;-1.94;100.00
7614;BME280;3848;42.016;23.098;2024-01-30T07:13:51;99141.56;;;-1.92;100.00
7614;BME280;3848;42.016;23.098;2024-01-30T07:16:22;99147.00;;;-1.86;100.00
7614;BME280;3848;42.016;23.098;2024-01-30T07:18:50;99136.50;;;-1.81;100.00
7614;BME280;3848;42.016;23.098;2024-01-30T07:21:19;99138.97;;;-1.70;100.00
7614;BME280;3848;42.016;23.098;2024-01-30T07:23:54;99152.13;;;-1.61;100.00
7614;BME280;3848;42.016;23.098;2024-01-30T07:26:21;99129.03;;;-1.58;100.00
7614;BME280;3848;42.016;23.098;2024-01-30T07:28:49;99127.94;;;-1.50;100.00
7614;BME280;3848;42.016;23.098;2024-01-30T07:31:18;99126.78;;;-1.43;100.00
7614;BME280;3848;42.016;23.098;2024-01-30T07:33:46;99133.28;;;-1.34;100.00
7614;BME280;3848;42.016;23.098;2024-01-30T07:36:13;99040.41;;;-1.78;100.00
7614;BME280;3848;42.016;23.098;2024-01-30T07:38:40;99126.31;;;-1.14;100.00
7614;BME280;3848;42.016;23.098;2024-01-30T07:41:07;99128.25;;;-1.10;100.00
7614;BME280;3848;42.016;23.098;2024-01-30T07:43:34;99128.06;;;-1.02;100.00
7614;BME280;3848;42.016;23.098;2024-01-30T07:46:01;99128.78;;;-0.91;100.00
7614;BME280;3848;42.016;23.098;2024-01-30T07:48:30;99123.88;;;-0.78;100.00
7614;BME280;3848;42.016;23.098;2024-01-30T07:50:57;99132.06;;;-0.67;100.00
7614;BME280;3848;42.016;23.098;2024-01-30T07:53:24;99123.69;;;-0.56;100.00
7614;BME280;3848;42.016;23.098;2024-01-30T07:55:52;99123.53;;;-0.46;100.00
7614;BME280;3848;42.016;23.098;2024-01-30T07:58:19;99121.59;;;-0.25;100.00
7614;BME280;3848;42.016;23.098;2024-01-30T08:00:46;99113.78;;;-0.05;100.00
7614;BME280;3848;42.016;23.098;2024-01-30T08:03:13;99118.84;;;0.22;100.00
7614;BME280;3848;42.016;23.098;2024-01-30T08:05:43;99118.84;;;0.35;100.00
7614;BME280;3848;42.016;23.098;2024-01-30T08:08:11;99112.44;;;0.52;100.00
7614;BME280;3848;42.016;23.098;2024-01-30T08:10:38;99116.34;;;0.61;100.00
7614;BME280;3848;42.016;23.098;2024-01-30T08:13:06;99106.53;;;0.78;100.00
7614;BME280;3848;42.016;23.098;2024-01-30T08:15:34;99113.47;;;0.95;100.00
7614;BME280;3848;42.016;23.098;2024-01-30T08:18:04;99115.19;;;1.09;100.00
7614;BME280;3848;42.016;23.098;2024-01-30T08:20:32;99110.34;;;1.12;100.00
7614;BME280;3848;42.016;23.098;2024-01-30T08:23:02;99112.44;;;1.19;100.00
7614;BME280;3848;42.016;23.098;2024-01-30T08:25:30;99101.38;;;1.29;100.00
7614;BME280;3848;42.016;23.098;2024-01-30T08:27:58;99106.47;;;1.45;100.00
7614;BME280;3848;42.016;23.098;2024-01-30T08:30:25;99094.44;;;1.53;100.00
7614;BME280;3848;42.016;23.098;2024-01-30T08:32:53;99084.59;;;1.56;100.00
7614;BME280;3848;42.016;23.098;2024-01-30T08:35:20;99101.13;;;1.67;100.00
7614;BME280;3848;42.016;23.098;2024-01-30T08:37:47;99102.94;;;1.70;100.00
7614;BME280;3848;42.016;23.098;2024-01-30T08:40:17;99098.72;;;1.83;100.00
7614;BME280;3848;42.016;23.098;2024-01-30T08:42:45;99103.50;;;1.94;100.00
7614;BME280;3848;42.016;23.098;2024-01-30T08:45:13;99102.03;;;1.97;100.00
7614;BME280;3848;42.016;23.098;2024-01-30T08:47:41;99100.38;;;1.98;100.00
7614;BME280;3848;42.016;23.098;2024-01-30T08:50:08;99095.22;;;2.09;100.00
7614;BME280;3848;42.016;23.098;2024-01-30T08:52:35;99089.84;;;2.33;92.23
7614;BME280;3848;42.016;23.098;2024-01-30T08:55:03;99084.19;;;2.52;89.64
7614;BME280;3848;42.016;23.098;2024-01-30T08:57:32;99089.53;;;2.72;92.31
7614;BME280;3848;42.016;23.098;2024-01-30T08:59:59;99084.72;;;2.92;86.45
7614;BME280;3848;42.016;23.098;2024-01-30T09:02:29;99081.03;;;3.01;80.93
7614;BME280;3848;42.016;23.098;2024-01-30T09:04:56;99085.75;;;3.12;78.32
7614;BME280;3848;42.016;23.098;2024-01-30T09:07:24;99072.34;;;3.27;76.47
7614;BME280;3848;42.016;23.098;2024-01-30T09:09:51;99083.56;;;3.50;78.51
7614;BME280;3848;42.016;23.098;2024-01-30T09:12:18;99072.44;;;3.61;77.39
7614;BME280;3848;42.016;23.098;2024-01-30T09:14:46;99064.09;;;3.62;77.77
7614;BME280;3848;42.016;23.098;2024-01-30T09:17:13;99070.78;;;3.78;77.39
7614;BME280;3848;42.016;23.098;2024-01-30T09:19:41;99063.09;;;3.93;76.12
7614;BME280;3848;42.016;23.098;2024-01-30T09:22:08;99059.91;;;4.13;73.57
7614;BME280;3848;42.016;23.098;2024-01-30T09:24:36;99055.59;;;4.28;72.44
7614;BME280;3848;42.016;23.098;2024-01-30T09:27:05;99046.41;;;4.29;71.81
7614;BME280;3848;42.016;23.098;2024-01-30T09:29:34;99050.38;;;4.42;67.91
7614;BME280;3848;42.016;23.098;2024-01-30T09:32:04;99049.53;;;4.59;66.83
7614;BME280;3848;42.016;23.098;2024-01-30T09:34:31;99046.59;;;5.24;67.06
7614;BME280;3848;42.016;23.098;2024-01-30T09:36:58;99052.69;;;6.08;64.69
7614;BME280;3848;42.016;23.098;2024-01-30T09:39:26;99038.25;;;6.47;61.16
7614;BME280;3848;42.016;23.098;2024-01-30T09:41:58;99029.88;;;6.48;58.70
7614;BME280;3848;42.016;23.098;2024-01-30T09:44:28;99024.97;;;6.73;58.57
7614;BME280;3848;42.016;23.098;2024-01-30T09:46:56;99022.28;;;6.69;58.49
7614;BME280;3848;42.016;23.098;2024-01-30T09:49:32;99026.34;;;6.88;55.91
7614;BME280;3848;42.016;23.098;2024-01-30T09:51:59;99020.41;;;7.10;56.48
7614;BME280;3848;42.016;23.098;2024-01-30T09:54:26;99011.72;;;7.03;54.82
7614;BME280;3848;42.016;23.098;2024-01-30T09:56:55;99007.72;;;6.86;54.88
7614;BME280;3848;42.016;23.098;2024-01-30T09:59:22;99009.91;;;6.54;56.71
7614;BME280;3848;42.016;23.098;2024-01-30T10:01:50;99001.50;;;7.00;55.45
7614;BME280;3848;42.016;23.098;2024-01-30T10:04:17;98997.91;;;6.71;55.48
7614;BME280;3848;42.016;23.098;2024-01-30T10:06:46;99002.13;;;6.70;55.40
7614;BME280;3848;42.016;23.098;2024-01-30T10:09:14;98987.81;;;6.71;55.04
7614;BME280;3848;42.016;23.098;2024-01-30T10:11:41;98990.56;;;6.55;56.14
7614;BME280;3848;42.016;23.098;2024-01-30T10:14:08;98991.59;;;6.82;56.00
7614;BME280;3848;42.016;23.098;2024-01-30T10:16:35;98981.50;;;7.06;55.41
7614;BME280;3848;42.016;23.098;2024-01-30T10:19:02;98991.34;;;6.98;55.02
7614;BME280;3848;42.016;23.098;2024-01-30T10:21:29;98965.59;;;7.32;54.02
7614;BME280;3848;42.016;23.098;2024-01-30T10:23:58;98970.28;;;7.71;53.20
7614;BME280;3848;42.016;23.098;2024-01-30T10:26:25;98964.88;;;8.13;53.42
7614;BME280;3848;42.016;23.098;2024-01-30T10:28:54;98905.59;;;8.08;50.34
7614;BME280;3848;42.016;23.098;2024-01-30T10:31:21;98958.56;;;8.84;51.57
7614;BME280;3848;42.016;23.098;2024-01-30T10:33:49;98945.19;;;9.20;48.78
7614;BME280;3848;42.016;23.098;2024-01-30T10:36:17;98943.06;;;9.69;49.33
7614;BME280;3848;42.016;23.098;2024-01-30T10:38:45;98934.19;;;9.87;49.16
7614;BME280;3848;42.016;23.098;2024-01-30T10:41:15;98937.63;;;10.23;48.33
7614;BME280;3848;42.016;23.098;2024-01-30T10:43:50;98927.75;;;10.01;48.20
7614;BME280;3848;42.016;23.098;2024-01-30T10:46:30;98924.13;;;10.26;48.09
7614;BME280;3848;42.016;23.098;2024-01-30T10:48:59;98920.91;;;9.98;46.02
7614;BME280;3848;42.016;23.098;2024-01-30T10:51:27;98925.63;;;10.19;47.38
7614;BME280;3848;42.016;23.098;2024-01-30T10:53:56;98925.94;;;9.97;46.85
7614;BME280;3848;42.016;23.098;2024-01-30T10:56:25;98925.94;;;9.97;47.06
7614;BME280;3848;42.016;23.098;2024-01-30T10:58:53;98905.31;;;9.82;46.92
7614;BME280;3848;42.016;23.098;2024-01-30T11:01:22;98912.72;;;9.74;46.94
7614;BME280;3848;42.016;23.098;2024-01-30T11:03:51;98882.94;;;10.03;46.84
7614;BME280;3848;42.016;23.098;2024-01-30T11:06:22;98889.13;;;9.78;46.91
7614;BME280;3848;42.016;23.098;2024-01-30T11:09:00;98899.47;;;10.22;46.34
7614;BME280;3848;42.016;23.098;2024-01-30T11:11:50;98902.03;;;9.87;46.45
7614;BME280;3848;42.016;23.098;2024-01-30T11:14:23;98893.03;;;9.64;46.72
7614;BME280;3848;42.016;23.098;2024-01-30T11:16:52;98882.88;;;10.00;46.39
7614;BME280;3848;42.016;23.098;2024-01-30T11:19:25;98870.69;;;9.51;47.66
7614;BME280;3848;42.016;23.098;2024-01-30T11:21:53;98862.16;;;9.47;47.15
7614;BME280;3848;42.016;23.098;2024-01-30T11:24:23;98881.13;;;9.61;47.25
7614;BME280;3848;42.016;23.098;2024-01-30T11:26:55;98874.06;;;9.86;46.65
7614;BME280;3848;42.016;23.098;2024-01-30T11:29:25;98874.47;;;10.02;46.10
7614;BME280;3848;42.016;23.098;2024-01-30T11:31:52;98856.38;;;9.53;45.90
7614;BME280;3848;42.016;23.098;2024-01-30T11:34:20;98859.31;;;9.69;46.45
7614;BME280;3848;42.016;23.098;2024-01-30T11:36:51;98872.75;;;10.01;46.14
7614;BME280;3848;42.016;23.098;2024-01-30T11:39:24;98870.91;;;9.96;46.24
7614;BME280;3848;42.016;23.098;2024-01-30T11:41:53;98855.94;;;9.70;45.82
7614;BME280;3848;42.016;23.098;2024-01-30T11:44:21;98854.06;;;9.62;46.99
7614;BME280;3848;42.016;23.098;2024-01-30T11:46:48;98845.28;;;9.49;46.36
7614;BME280;3848;42.016;23.098;2024-01-30T11:49:16;98858.19;;;9.24;47.20
7614;BME280;3848;42.016;23.098;2024-01-30T11:51:47;98854.59;;;9.15;48.26
7614;BME280;3848;42.016;23.098;2024-01-30T11:54:17;98851.84;;;9.06;48.05
7614;BME280;3848;42.016;23.098;2024-01-30T11:56:44;98849.63;;;9.19;48.21
7614;BME280;3848;42.016;23.098;2024-01-30T11:59:19;98834.56;;;8.93;47.91
7614;BME280;3848;42.016;23.098;2024-01-30T12:01:46;98811.16;;;8.70;48.82
7614;BME280;3848;42.016;23.098;2024-01-30T12:04:14;98833.13;;;8.38;48.22
7614;BME280;3848;42.016;23.098;2024-01-30T12:06:41;98808.28;;;7.98;48.67
7614;BME280;3848;42.016;23.098;2024-01-30T12:09:13;98820.44;;;8.10;50.28
7614;BME280;3848;42.016;23.098;2024-01-30T12:11:47;98808.59;;;8.37;50.29
7614;BME280;3848;42.016;23.098;2024-01-30T12:14:16;98805.53;;;8.19;50.45
7614;BME280;3848;42.016;23.098;2024-01-30T12:16:48;98810.22;;;7.78;51.69
7614;BME280;3848;42.016;23.098;2024-01-30T12:19:21;98801.34;;;7.64;51.74
7614;BME280;3848;42.016;23.098;2024-01-30T12:21:54;98783.63;;;7.36;52.42
7614;BME280;3848;42.016;23.098;2024-01-30T12:24:21;98797.25;;;7.14;53.04
7614;BME280;3848;42.016;23.098;2024-01-30T12:26:49;98807.63;;;6.96;53.37
7614;BME280;3848;42.016;23.098;2024-01-30T12:29:17;98797.84;;;6.81;53.87
7614;BME280;3848;42.016;23.098;2024-01-30T12:31:44;98802.38;;;6.66;54.15
7614;BME280;3848;42.016;23.098;2024-01-30T12:34:14;98793.59;;;6.55;54.99
7614;BME280;3848;42.016;23.098;2024-01-30T12:36:42;98777.88;;;6.39;56.12
7614;BME280;3848;42.016;23.098;2024-01-30T12:39:11;98782.63;;;6.30;55.76
7614;BME280;3848;42.016;23.098;2024-01-30T12:41:40;98776.78;;;6.31;56.09
7614;BME280;3848;42.016;23.098;2024-01-30T12:44:07;98797.94;;;6.35;56.72
7614;BME280;3848;42.016;23.098;2024-01-30T12:46:36;98785.31;;;6.35;56.27
7614;BME280;3848;42.016;23.098;2024-01-30T12:49:03;98787.69;;;6.30;57.08
7614;BME280;3848;42.016;23.098;2024-01-30T12:51:34;98790.31;;;6.33;56.15
7614;BME280;3848;42.016;23.098;2024-01-30T12:54:05;98788.19;;;6.22;56.72
7614;BME280;3848;42.016;23.098;2024-01-30T12:56:32;98765.47;;;6.22;57.92
7614;BME280;3848;42.016;23.098;2024-01-30T12:59:00;98783.84;;;6.18;57.28
7614;BME280;3848;42.016;23.098;2024-01-30T13:01:27;98783.28;;;6.25;57.65
7614;BME280;3848;42.016;23.098;2024-01-30T13:03:56;98715.09;;;5.78;57.27
7614;BME280;3848;42.016;23.098;2024-01-30T13:06:24;98781.06;;;6.10;56.35
7614;BME280;3848;42.016;23.098;2024-01-30T13:08:56;98782.06;;;6.15;57.05
7614;BME280;3848;42.016;23.098;2024-01-30T13:11:25;98768.38;;;6.08;57.39